Time;durP1;ratioP1;P1;durP2;ratioP2;P2;SDS_P1;SDS_P2;PMS_P1;PMS_P2;Temp;Humidity;BMP_temperature;BMP_pressure;BME280_temperature;BME280_humidity;BME280_pressure;Samples;Min_cycle;Max_cycle;Signal;HPM_P1;HPM_P2
2023/09/08 00:02:28;;;;;;;6.45;2.40;;;;;;;19.46;100.00;101159.44;5070182;28;20041;-68
2023/09/08 00:04:55;;;;;;;7.13;3.08;;;;;;;19.56;100.00;101157.84;5063068;28;20135;-69
2023/09/08 00:07:22;;;;;;;7.53;3.30;;;;;;;19.51;100.00;101149.34;5070986;28;20143;-69
2023/09/08 00:09:49;;;;;;;7.47;2.60;;;;;;;19.51;100.00;101144.91;5070494;28;20199;-68
2023/09/08 00:12:16;;;;;;;6.93;2.80;;;;;;;19.48;100.00;101139.81;5065103;28;20041;-68
2023/09/08 00:14:43;;;;;;;6.65;2.30;;;;;;;19.49;100.00;101136.19;5058128;28;20490;-68
2023/09/08 00:17:10;;;;;;;6.10;2.47;;;;;;;19.63;100.00;101143.19;5071120;28;20477;-69
2023/09/08 00:19:38;;;;;;;6.80;2.58;;;;;;;19.57;100.00;101133.00;5070847;28;20056;-69
2023/09/08 00:22:07;;;;;;;6.07;2.45;;;;;;;19.41;100.00;101133.22;5068228;28;20045;-68
2023/09/08 00:24:34;;;;;;;6.28;2.65;;;;;;;19.38;100.00;101128.09;5068827;28;20837;-68
2023/09/08 00:27:01;;;;;;;5.70;2.03;;;;;;;19.46;100.00;101117.81;5059256;28;20057;-68
2023/09/08 00:29:28;;;;;;;5.82;2.00;;;;;;;19.59;100.00;101117.81;5067342;28;20056;-67
2023/09/08 00:31:55;;;;;;;5.88;2.25;;;;;;;19.59;100.00;101109.84;5068433;28;20044;-67
2023/09/08 00:34:22;;;;;;;5.45;2.17;;;;;;;19.66;100.00;101128.88;5070446;28;20084;-68
2023/09/08 00:36:48;;;;;;;5.85;2.25;;;;;;;19.65;100.00;101130.66;5070542;28;20052;-69
2023/09/08 00:39:15;;;;;;;6.15;2.50;;;;;;;19.56;100.00;101141.09;5070145;28;20067;-68
2023/09/08 00:41:42;;;;;;;8.15;2.70;;;;;;;19.43;100.00;101133.97;5069669;28;20494;-68
2023/09/08 00:44:08;;;;;;;6.40;2.60;;;;;;;19.18;100.00;101123.31;5069889;28;20051;-69
2023/09/08 00:46:35;;;;;;;6.82;2.92;;;;;;;19.23;100.00;101126.50;5070264;28;20428;-69
2023/09/08 00:49:02;;;;;;;8.85;3.30;;;;;;;19.24;100.00;101122.91;5069444;28;20454;-69
2023/09/08 00:51:29;;;;;;;8.85;3.83;;;;;;;19.03;100.00;101112.75;5068375;28;20088;-69
2023/09/08 00:53:56;;;;;;;11.23;3.60;;;;;;;19.02;100.00;101119.03;5069976;28;20474;-68
2023/09/08 00:56:23;;;;;;;8.55;3.42;;;;;;;18.93;100.00;101127.63;5077157;28;20044;-68
2023/09/08 00:58:50;;;;;;;7.43;3.17;;;;;;;18.95;100.00;101129.22;5068044;28;20051;-69
2023/09/08 01:01:17;;;;;;;7.18;3.00;;;;;;;19.09;100.00;101122.97;5068810;28;20052;-69
2023/09/08 01:03:44;;;;;;;7.05;3.00;;;;;;;19.12;100.00;101103.34;5064128;28;20053;-69
2023/09/08 01:06:12;;;;;;;7.47;2.95;;;;;;;19.22;100.00;101122.16;5063361;28;20045;-68
2023/09/08 01:08:39;;;;;;;8.07;3.30;;;;;;;19.13;100.00;101113.00;5068922;28;20084;-69
2023/09/08 01:11:06;;;;;;;9.13;4.43;;;;;;;19.28;100.00;101109.31;5068614;28;20052;-69
2023/09/08 01:13:33;;;;;;;9.30;3.67;;;;;;;19.18;100.00;101108.25;5069660;28;20060;-68
2023/09/08 01:16:01;;;;;;;8.50;3.55;;;;;;;19.13;100.00;101097.09;5068409;28;20061;-69
2023/09/08 01:18:28;;;;;;;9.40;3.50;;;;;;;19.12;100.00;101100.69;5059586;28;20058;-69
2023/09/08 01:21:01;;;;;;;10.63;3.67;;;;;;;19.21;100.00;101110.69;5083075;28;20070;-68
2023/09/08 01:23:49;;;;;;;7.65;2.70;;;;;;;19.25;100.00;101085.63;5063916;28;20049;-68
2023/09/08 01:26:25;;;;;;;7.13;2.88;;;;;;;19.25;100.00;101090.09;5057962;28;20044;-68
2023/09/08 01:28:53;;;;;;;6.68;2.88;;;;;;;19.29;100.00;101095.06;5067727;28;20481;-68
2023/09/08 01:31:20;;;;;;;6.80;2.83;;;;;;;19.26;100.00;101086.47;5067428;28;20052;-68
2023/09/08 01:33:47;;;;;;;6.65;2.40;;;;;;;19.37;100.00;101091.91;5069011;28;20090;-68
2023/09/08 01:36:14;;;;;;;6.65;2.65;;;;;;;19.26;100.00;101082.00;5068937;28;20134;-68
2023/09/08 01:38:41;;;;;;;6.82;2.83;;;;;;;19.34;100.00;101086.81;5068109;28;20518;-68
2023/09/08 01:41:07;;;;;;;8.45;3.28;;;;;;;19.30;100.00;101085.28;5067755;28;20060;-69
2023/09/08 01:43:34;;;;;;;7.35;2.83;;;;;;;19.18;100.00;101076.38;5069924;28;20493;-69
2023/09/08 01:46:01;;;;;;;7.57;2.97;;;;;;;19.09;100.00;101085.00;5070072;28;20048;-69
2023/09/08 01:48:27;;;;;;;7.20;2.38;;;;;;;19.22;100.00;101098.25;5069152;28;20055;-69
2023/09/08 01:50:54;;;;;;;7.82;2.88;;;;;;;19.05;100.00;101094.97;5068352;28;20048;-69
2023/09/08 01:53:21;;;;;;;7.95;2.95;;;;;;;19.03;100.00;101088.03;5069029;28;20048;-69
2023/09/08 01:55:48;;;;;;;7.85;3.13;;;;;;;19.11;100.00;101089.22;5069359;28;20056;-69
2023/09/08 01:58:14;;;;;;;6.93;2.72;;;;;;;18.99;100.00;101068.81;5068209;28;20055;-69
2023/09/08 02:00:41;;;;;;;6.32;2.55;;;;;;;19.01;100.00;101069.56;5068354;28;20409;-69
2023/09/08 02:03:08;;;;;;;7.88;2.88;;;;;;;18.93;100.00;101072.75;5068486;28;20055;-67
2023/09/08 02:05:38;;;;;;;6.68;2.72;;;;;;;19.00;100.00;101069.66;5069370;28;20056;-68
2023/09/08 02:08:05;;;;;;;8.25;3.38;;;;;;;18.97;100.00;101060.97;5066610;28;20041;-68
2023/09/08 02:10:32;;;;;;;7.68;2.70;;;;;;;18.94;100.00;101052.38;5068133;28;20150;-69
2023/09/08 02:12:59;;;;;;;7.68;3.47;;;;;;;18.75;100.00;101058.03;5067709;28;20076;-68
2023/09/08 02:15:26;;;;;;;7.97;3.08;;;;;;;18.79;100.00;101054.22;5057938;28;20059;-68
2023/09/08 02:17:54;;;;;;;6.05;2.53;;;;;;;18.94;100.00;101068.28;5060327;28;20638;-68
2023/09/08 02:20:21;;;;;;;6.85;3.05;;;;;;;18.98;100.00;101075.06;5069140;28;20052;-68
2023/09/08 02:22:53;;;;;;;6.68;2.72;;;;;;;19.01;100.00;101053.66;5062965;28;20040;-68
2023/09/08 02:25:20;;;;;;;6.97;2.60;;;;;;;19.00;100.00;101038.69;5060393;28;20553;-68
2023/09/08 02:27:46;;;;;;;8.45;2.97;;;;;;;19.09;100.00;101050.50;5068567;28;20766;-68
2023/09/08 02:30:13;;;;;;;7.30;3.08;;;;;;;18.95;100.00;101046.13;5068143;28;20584;-68
2023/09/08 02:32:42;;;;;;;8.40;2.90;;;;;;;18.87;100.00;101038.66;5066623;28;20056;-68
2023/09/08 02:35:10;;;;;;;7.15;3.13;;;;;;;18.82;100.00;101047.88;5068160;28;20498;-69
2023/09/08 02:37:38;;;;;;;5.65;2.38;;;;;;;18.89;100.00;101038.56;5056366;28;20134;-68
2023/09/08 02:40:06;;;;;;;7.55;3.05;;;;;;;18.79;100.00;101033.84;5068602;28;20075;-68
2023/09/08 02:42:33;;;;;;;8.45;3.00;;;;;;;18.79;100.00;101044.47;5067870;28;20044;-68
2023/09/08 02:45:00;;;;;;;8.52;3.00;;;;;;;18.78;100.00;101034.78;5068276;28;20131;-68
2023/09/08 02:47:26;;;;;;;7.63;3.28;;;;;;;18.63;100.00;101033.19;5062244;28;20552;-68
2023/09/08 02:49:53;;;;;;;8.15;3.75;;;;;;;18.57;100.00;101031.81;5070822;28;20060;-68
2023/09/08 02:52:20;;;;;;;6.30;2.53;;;;;;;18.70;100.00;101033.63;5077445;28;20486;-69
2023/09/08 02:54:46;;;;;;;8.20;3.20;;;;;;;18.61;100.00;101035.09;5071603;28;20063;-69
2023/09/08 02:57:13;;;;;;;7.25;2.92;;;;;;;18.65;100.00;101033.94;5087876;28;20088;-67
2023/09/08 02:59:40;;;;;;;9.27;3.17;;;;;;;18.58;100.00;101020.22;5072095;28;20056;-68
2023/09/08 03:02:06;;;;;;;7.43;2.85;;;;;;;18.66;100.00;101032.13;5086981;28;20501;-69
2023/09/08 03:04:33;;;;;;;7.15;3.10;;;;;;;18.64;100.00;101026.06;5072121;28;20052;-69
2023/09/08 03:07:00;;;;;;;7.82;3.20;;;;;;;18.58;100.00;101017.56;5071585;28;20402;-69
2023/09/08 03:09:27;;;;;;;8.32;3.53;;;;;;;18.49;100.00;101018.19;5068650;28;20044;-69
2023/09/08 03:11:53;;;;;;;8.07;3.42;;;;;;;18.60;100.00;101038.69;5060269;28;20052;-69
2023/09/08 03:14:20;;;;;;;8.00;3.03;;;;;;;18.52;100.00;101033.91;5071446;28;20057;-69
2023/09/08 03:16:47;;;;;;;7.72;3.50;;;;;;;18.42;100.00;101026.66;5071647;28;20139;-68
2023/09/08 03:19:14;;;;;;;6.65;2.70;;;;;;;18.45;100.00;101022.00;5065006;28;20075;-69
2023/09/08 03:21:40;;;;;;;7.80;3.20;;;;;;;18.48;100.00;101011.19;5069823;28;20052;-69
2023/09/08 03:24:07;;;;;;;6.97;3.10;;;;;;;18.36;100.00;101007.56;5071017;28;20056;-69
2023/09/08 03:26:34;;;;;;;7.93;3.28;;;;;;;18.38;100.00;101018.06;5070018;28;20048;-67
2023/09/08 03:29:00;;;;;;;7.95;3.15;;;;;;;18.39;100.00;101012.63;5067921;28;20049;-68
2023/09/08 03:31:27;;;;;;;7.80;3.40;;;;;;;18.43;100.00;101017.75;5070713;28;20064;-68
2023/09/08 03:33:54;;;;;;;7.90;3.15;;;;;;;18.36;100.00;101019.94;5071485;28;20470;-69
2023/09/08 03:36:21;;;;;;;8.57;3.00;;;;;;;18.31;100.00;101008.78;5072306;28;20405;-69
2023/09/08 03:38:48;;;;;;;7.78;3.35;;;;;;;18.43;100.00;101021.22;5071213;28;20052;-69
2023/09/08 03:41:14;;;;;;;8.05;3.33;;;;;;;18.30;100.00;101025.66;5070850;28;20044;-68
2023/09/08 03:43:41;;;;;;;7.30;3.17;;;;;;;18.27;100.00;101012.59;5069225;28;20044;-68
2023/09/08 03:46:08;;;;;;;7.93;3.17;;;;;;;18.17;100.00;101031.75;5066512;28;20531;-67
2023/09/08 03:48:35;;;;;;;7.90;3.60;;;;;;;18.08;100.00;101032.34;5064742;28;20086;-68
2023/09/08 03:51:01;;;;;;;8.10;3.30;;;;;;;18.02;100.00;101017.72;5069813;28;20062;-69
2023/09/08 03:53:28;;;;;;;7.45;3.33;;;;;;;17.98;100.00;101032.09;5069736;28;20139;-68
2023/09/08 03:55:55;;;;;;;7.65;3.25;;;;;;;18.06;100.00;101038.69;5069070;28;20131;-69
2023/09/08 03:58:21;;;;;;;10.32;3.92;;;;;;;18.02;100.00;101038.03;5067561;28;20107;-68
2023/09/08 04:00:48;;;;;;;8.20;3.72;;;;;;;17.94;100.00;101040.34;5067414;28;20098;-68
2023/09/08 04:03:15;;;;;;;8.13;3.63;;;;;;;17.88;100.00;101030.97;5068814;28;20127;-68
2023/09/08 04:05:42;;;;;;;8.55;3.58;;;;;;;17.97;100.00;101033.06;5069641;28;20514;-69
2023/09/08 04:08:08;;;;;;;8.73;3.70;;;;;;;17.81;100.00;101021.69;5069023;28;20482;-69
2023/09/08 04:10:35;;;;;;;8.02;3.40;;;;;;;17.88;100.00;101032.78;5067479;28;20409;-69
2023/09/08 04:13:02;;;;;;;8.57;3.65;;;;;;;17.81;100.00;101011.09;5056339;28;20070;-68
2023/09/08 04:15:29;;;;;;;8.00;3.53;;;;;;;17.81;100.00;101013.72;5068949;28;20139;-69
2023/09/08 04:17:57;;;;;;;10.13;3.97;;;;;;;17.82;100.00;101028.69;5065849;28;20053;-69
2023/09/08 04:20:25;;;;;;;9.20;3.58;;;;;;;17.90;100.00;101028.22;5065401;28;20044;-69
2023/09/08 04:22:52;;;;;;;8.05;3.45;;;;;;;17.86;100.00;101021.44;5055225;28;20402;-69
2023/09/08 04:25:18;;;;;;;8.40;3.45;;;;;;;17.91;100.00;101022.00;5061058;28;20071;-68
2023/09/08 04:27:45;;;;;;;8.45;3.63;;;;;;;17.91;100.00;101019.34;5065505;28;20052;-69
2023/09/08 04:30:12;;;;;;;9.43;3.55;;;;;;;17.81;100.00;101024.31;5069716;28;20474;-67
2023/09/08 04:32:40;;;;;;;7.72;3.25;;;;;;;17.80;100.00;101017.34;5070085;28;20394;-68
2023/09/08 04:35:07;;;;;;;7.22;3.15;;;;;;;17.89;100.00;101016.78;5070121;28;20102;-68
2023/09/08 04:37:34;;;;;;;8.02;3.63;;;;;;;17.87;100.00;101012.56;5070385;28;20052;-68
2023/09/08 04:40:01;;;;;;;8.68;3.53;;;;;;;17.89;100.00;101016.78;5063980;28;20044;-69
2023/09/08 04:42:27;;;;;;;8.32;3.45;;;;;;;17.81;100.00;101011.09;5069935;28;20054;-68
2023/09/08 04:44:54;;;;;;;9.40;4.20;;;;;;;17.70;100.00;101018.88;5068159;28;20059;-69
2023/09/08 04:47:21;;;;;;;11.60;4.03;;;;;;;17.60;100.00;101015.94;5070432;28;20052;-69
2023/09/08 04:49:48;;;;;;;10.55;3.60;;;;;;;17.61;100.00;101013.19;5069622;28;20422;-68
2023/09/08 04:52:15;;;;;;;8.45;3.50;;;;;;;17.74;100.00;101021.25;5069119;28;20494;-68
2023/09/08 04:54:41;;;;;;;8.18;3.78;;;;;;;17.72;100.00;101028.41;5069736;28;20054;-68
2023/09/08 04:57:08;;;;;;;9.63;3.78;;;;;;;17.69;100.00;101027.75;5068867;28;20128;-67
2023/09/08 04:59:48;;;;;;;9.20;4.03;;;;;;;17.53;100.00;101020.78;5068350;28;20056;-68
2023/09/08 05:02:15;;;;;;;8.02;3.85;;;;;;;17.65;100.00;101029.75;5064210;28;20559;-69
2023/09/08 05:04:42;;;;;;;9.55;4.10;;;;;;;17.58;100.00;101023.13;5066150;28;20472;-69
2023/09/08 05:07:08;;;;;;;10.70;4.40;;;;;;;17.68;100.00;101023.41;5067152;28;20045;-69
2023/09/08 05:09:35;;;;;;;9.07;4.20;;;;;;;17.75;100.00;101028.22;5069510;28;20057;-68
2023/09/08 05:12:02;;;;;;;9.20;4.20;;;;;;;17.77;100.00;101022.84;5068369;28;20048;-68
2023/09/08 05:14:29;;;;;;;8.50;3.97;;;;;;;17.72;100.00;101022.28;5068896;28;20490;-68
2023/09/08 05:16:56;;;;;;;8.73;3.72;;;;;;;17.75;100.00;101033.50;5069293;28;20048;-68
2023/09/08 05:19:23;;;;;;;8.85;3.83;;;;;;;17.80;100.00;101027.94;5066974;28;20474;-68
2023/09/08 05:21:51;;;;;;;8.70;3.85;;;;;;;17.87;100.00;101029.28;5066140;28;20048;-69
2023/09/08 05:24:18;;;;;;;10.52;4.72;;;;;;;17.72;100.00;101014.31;5069149;28;20132;-69
2023/09/08 05:26:45;;;;;;;9.55;4.30;;;;;;;17.74;100.00;101033.59;5070099;28;20123;-68
2023/09/08 05:29:12;;;;;;;8.38;3.75;;;;;;;17.71;100.00;101017.94;5068779;28;20414;-69
2023/09/08 05:31:39;;;;;;;9.00;4.25;;;;;;;17.72;100.00;101028.41;5058892;28;20060;-68
2023/09/08 05:34:06;;;;;;;9.10;3.70;;;;;;;17.76;100.00;101023.75;5058604;28;20048;-68
2023/09/08 05:36:35;;;;;;;8.15;3.83;;;;;;;17.72;100.00;101009.03;5061975;28;20489;-68
2023/09/08 05:39:02;;;;;;;11.32;4.50;;;;;;;17.76;100.00;101024.63;5062602;28;20504;-68
2023/09/08 05:41:30;;;;;;;8.88;3.60;;;;;;;17.91;100.00;101035.25;5058136;28;20052;-68
2023/09/08 05:43:56;;;;;;;8.15;3.60;;;;;;;17.82;100.00;101040.13;5067419;28;20049;-68
2023/09/08 05:46:23;;;;;;;9.02;4.00;;;;;;;17.85;100.00;101036.44;5059478;28;20045;-69
2023/09/08 05:48:50;;;;;;;10.48;5.32;;;;;;;17.80;100.00;101031.44;5058268;28;20044;-69
2023/09/08 05:51:17;;;;;;;12.15;5.25;;;;;;;17.84;100.00;101029.44;5067658;28;20048;-69
2023/09/08 05:53:45;;;;;;;9.55;4.72;;;;;;;17.87;100.00;101036.38;5062117;28;20477;-68
2023/09/08 05:56:11;;;;;;;11.68;5.22;;;;;;;17.66;100.00;101023.50;5062251;28;20090;-69
2023/09/08 05:58:38;;;;;;;10.63;5.70;;;;;;;17.76;100.00;101024.63;5052563;28;20048;-69
2023/09/08 06:01:06;;;;;;;9.52;4.45;;;;;;;17.97;100.00;101035.69;5057848;28;20047;-69
2023/09/08 06:03:33;;;;;;;9.25;4.43;;;;;;;18.10;100.00;101038.41;5058764;28;20049;-69
2023/09/08 06:06:00;;;;;;;8.18;3.72;;;;;;;18.22;100.00;101039.41;5069074;28;20135;-68
2023/09/08 06:08:27;;;;;;;7.85;3.55;;;;;;;18.29;100.00;101042.50;5062437;28;20514;-67
2023/09/08 06:10:53;;;;;;;10.15;4.78;;;;;;;18.28;100.00;101040.81;5058851;28;20494;-68
2023/09/08 06:13:20;;;;;;;9.88;4.72;;;;;;;18.31;100.00;101041.47;5064438;28;20409;-67
2023/09/08 06:15:47;;;;;;;9.57;4.22;;;;;;;18.25;100.00;101033.06;5061998;28;20381;-68
2023/09/08 06:18:13;;;;;;;8.85;4.20;;;;;;;18.34;100.00;101043.94;5067348;28;20049;-68
2023/09/08 06:20:44;;;;;;;10.63;4.28;;;;;;;18.42;100.00;101051.38;5062573;28;20055;-68
2023/09/08 06:23:11;;;;;;;10.05;4.68;;;;;;;18.33;100.00;101050.16;5064040;28;20045;-69
2023/09/08 06:25:38;;;;;;;9.23;4.43;;;;;;;18.21;100.00;101043.84;5069193;28;20436;-68
2023/09/08 06:28:05;;;;;;;10.02;4.80;;;;;;;18.31;100.00;101045.91;5067843;28;20087;-69
2023/09/08 06:30:32;;;;;;;12.27;5.25;;;;;;;18.46;100.00;101047.56;5071092;28;20421;-68
2023/09/08 06:32:58;;;;;;;10.98;4.88;;;;;;;18.50;100.00;101051.72;5057486;28;20427;-68
2023/09/08 06:35:26;;;;;;;10.23;4.20;;;;;;;18.71;100.00;101064.50;5057327;28;20494;-68
2023/09/08 06:37:53;;;;;;;13.77;4.63;;;;;;;18.83;100.00;101065.50;5067420;28;20049;-66
2023/09/08 06:40:20;;;;;;;9.25;4.25;;;;;;;19.00;100.00;101059.91;5059591;28;20056;-69
2023/09/08 06:42:47;;;;;;;9.27;4.70;;;;;;;19.17;100.00;101069.38;5071793;28;20049;-68
2023/09/08 06:45:14;;;;;;;8.82;4.07;;;;;;;19.26;100.00;101071.38;5072737;28;20123;-69
2023/09/08 06:47:41;;;;;;;11.00;4.80;;;;;;;19.38;100.00;101069.69;5062571;28;20053;-68
2023/09/08 06:50:09;;;;;;;10.57;4.93;;;;;;;19.34;100.00;101071.72;5067312;28;20041;-68
2023/09/08 06:52:36;;;;;;;11.48;4.97;;;;;;;19.48;100.00;101065.44;5060460;28;20558;-68
2023/09/08 06:55:04;;;;;;;10.25;4.75;;;;;;;19.65;100.00;101058.94;5064200;28;20504;-68
2023/09/08 06:57:31;;;;;;;11.25;5.18;;;;;;;20.17;100.00;101059.72;5066226;28;20156;-68
2023/09/08 06:59:58;;;;;;;14.23;5.30;;;;;;;20.78;100.00;101082.75;5071560;28;20071;-68
2023/09/08 07:02:25;;;;;;;16.27;6.40;;;;;;;21.02;100.00;101069.41;5068871;28;20056;-68
2023/09/08 07:04:51;;;;;;;12.23;6.22;;;;;;;21.15;100.00;101069.31;5058519;28;20111;-69
2023/09/08 07:07:20;;;;;;;13.93;6.18;;;;;;;21.50;100.00;101058.59;5060512;28;20502;-68
2023/09/08 07:09:47;;;;;;;11.93;4.88;;;;;;;21.91;100.00;101062.44;5071920;28;20087;-69
2023/09/08 07:12:14;;;;;;;14.65;5.85;;;;;;;21.96;100.00;101068.25;5057270;28;20052;-69
2023/09/08 07:14:40;;;;;;;14.27;6.38;;;;;;;21.91;100.00;101062.44;5052803;28;20055;-66
2023/09/08 07:17:07;;;;;;;11.27;5.50;;;;;;;22.48;100.00;101073.84;5053171;28;20115;-68
2023/09/08 07:19:34;;;;;;;11.88;6.50;;;;;;;22.40;100.00;101073.66;5056668;28;20072;-68
2023/09/08 07:22:00;;;;;;;14.27;6.10;;;;;;;22.37;100.00;101069.41;5061846;28;20107;-68
2023/09/08 07:24:27;;;;;;;12.85;5.32;;;;;;;22.64;100.00;101072.59;5064810;28;20389;-68
2023/09/08 07:26:54;;;;;;;15.38;6.43;;;;;;;22.83;100.00;101054.03;5061219;28;20056;-69
2023/09/08 07:29:20;;;;;;;10.38;4.93;;;;;;;23.21;100.00;101059.78;5066438;28;20044;-68
2023/09/08 07:31:47;;;;;;;13.25;5.80;;;;;;;23.06;100.00;101067.31;5064445;28;20474;-69
2023/09/08 07:34:14;;;;;;;12.55;6.50;;;;;;;23.09;100.00;101069.72;5055902;28;20121;-69
2023/09/08 07:36:40;;;;;;;12.80;5.22;;;;;;;23.16;100.00;101070.03;5061103;28;20498;-68
2023/09/08 07:39:07;;;;;;;11.45;5.28;;;;;;;23.07;100.00;101064.50;5065997;28;20470;-68
2023/09/08 07:41:34;;;;;;;11.90;4.93;;;;;;;23.15;100.00;101076.34;5060757;28;20053;-68
2023/09/08 07:44:01;;;;;;;14.20;5.78;;;;;;;23.26;100.00;101061.06;5061444;28;20048;-68
2023/09/08 07:46:28;;;;;;;10.65;4.40;;;;;;;23.68;100.00;101071.69;5053956;28;20045;-68
2023/09/08 07:48:55;;;;;;;10.85;4.63;;;;;;;23.89;100.00;101065.47;5067225;28;20041;-69
2023/09/08 07:51:21;;;;;;;10.70;5.65;;;;;;;23.83;100.00;101058.84;5066228;28;20079;-69
2023/09/08 07:53:48;;;;;;;10.98;5.05;;;;;;;24.14;100.00;101063.28;5052436;28;20049;-69
2023/09/08 07:56:15;;;;;;;11.88;5.30;;;;;;;24.28;100.00;101062.88;5066982;28;20070;-69
2023/09/08 07:58:41;;;;;;;14.30;6.35;;;;;;;24.02;100.00;101059.88;5055140;28;20440;-69
2023/09/08 08:01:08;;;;;;;13.25;6.38;;;;;;;24.04;100.00;101060.56;5060894;28;20051;-69
2023/09/08 08:03:35;;;;;;;11.48;5.40;;;;;;;24.31;100.00;101056.38;5071610;28;20045;-69
2023/09/08 08:06:02;;;;;;;10.50;4.60;;;;;;;24.48;100.00;101054.84;5063818;28;20143;-69
2023/09/08 08:08:30;;;;;;;11.60;4.55;;;;;;;24.52;100.00;101057.09;5067538;28;20137;-69
2023/09/08 08:10:59;;;;;;;9.65;4.28;;;;;;;24.64;100.00;101053.31;5057616;28;20040;-69
2023/09/08 08:13:28;;;;;;;12.82;4.13;;;;;;;24.36;100.00;101054.13;5061393;28;20045;-69
2023/09/08 08:15:55;;;;;;;13.60;5.65;;;;;;;23.92;100.00;101051.84;5065594;28;20056;-69
2023/09/08 08:18:22;;;;;;;11.25;4.28;;;;;;;24.52;100.00;101064.28;5069106;28;20044;-69
2023/09/08 08:20:49;;;;;;;11.20;4.90;;;;;;;24.75;100.00;101056.84;5058221;28;20061;-69
2023/09/08 08:23:15;;;;;;;15.15;4.55;;;;;;;24.64;100.00;101049.81;5069783;28;20509;-69
2023/09/08 08:25:42;;;;;;;11.95;4.32;;;;;;;24.88;100.00;101038.66;5071075;28;20054;-69
2023/09/08 08:28:09;;;;;;;9.85;3.53;;;;;;;25.45;100.00;101044.00;5070877;28;20406;-69
2023/09/08 08:30:36;;;;;;;12.00;4.35;;;;;;;25.35;100.00;101027.97;5069452;28;20127;-69
2023/09/08 08:33:04;;;;;;;10.50;3.67;;;;;;;25.63;100.00;101040.56;5069228;28;20520;-69
2023/09/08 08:35:30;;;;;;;8.60;3.55;;;;;;;26.05;100.00;101046.28;5060318;28;20122;-69
2023/09/08 08:37:59;;;;;;;12.43;4.07;;;;;;;25.86;100.00;101041.00;5062393;28;20052;-69
2023/09/08 08:40:26;;;;;;;13.25;4.40;;;;;;;25.80;100.00;101049.63;5063917;28;20053;-70
2023/09/08 08:42:57;;;;;;;11.60;4.30;;;;;;;25.89;100.00;101049.59;5056742;28;20076;-69
2023/09/08 08:45:29;;;;;;;15.98;4.68;;;;;;;26.03;100.00;101034.00;5057909;28;20106;-69
2023/09/08 08:47:57;;;;;;;12.18;4.15;;;;;;;26.15;100.00;101048.88;5069376;28;20485;-69
2023/09/08 08:50:24;;;;;;;11.02;4.05;;;;;;;25.90;100.00;101050.41;5083202;28;20104;-69
2023/09/08 08:52:53;;;;;;;14.32;4.53;;;;;;;26.04;100.00;101049.94;5070253;28;20098;-69
2023/09/08 08:55:20;;;;;;;9.82;4.22;;;;;;;26.10;100.00;101054.72;5070755;28;20466;-69
2023/09/08 08:57:47;;;;;;;11.40;4.00;;;;;;;26.20;100.00;101051.13;5070347;28;20486;-69
2023/09/08 09:00:15;;;;;;;14.52;4.55;;;;;;;26.16;100.00;101058.63;5070362;28;20060;-69
2023/09/08 09:02:43;;;;;;;12.70;4.60;;;;;;;25.93;100.00;101047.44;5061363;28;20555;-69
2023/09/08 09:05:14;;;;;;;11.88;4.10;;;;;;;25.76;100.00;101058.00;5069476;28;20498;-69
2023/09/08 09:07:42;;;;;;;13.43;4.82;;;;;;;25.73;100.00;101055.59;5071130;28;20052;-69
2023/09/08 09:10:10;;;;;;;12.23;4.18;;;;;;;25.96;100.00;101057.91;5070506;28;20132;-69
2023/09/08 09:12:38;;;;;;;13.10;5.13;;;;;;;25.93;100.00;101052.81;5069605;28;20071;-69
2023/09/08 09:15:05;;;;;;;12.77;4.28;;;;;;;25.83;100.00;101063.56;5070207;28;20106;-69
2023/09/08 09:17:33;;;;;;;10.57;4.35;;;;;;;25.97;100.00;101064.94;5069705;28;20088;-69
2023/09/08 09:20:32;;;;;;;10.82;4.05;;;;;;;26.40;100.00;101062.53;5070318;28;20395;-69
2023/09/08 09:22:59;;;;;;;12.40;4.50;;;;;;;26.28;100.00;101054.72;5049774;28;20052;-69
2023/09/08 09:25:29;;;;;;;10.60;3.33;;;;;;;26.76;100.00;101063.41;5065244;28;20045;-70
2023/09/08 09:27:58;;;;;;;19.70;3.95;;;;;;;26.68;100.00;101063.31;5063769;28;20055;-69
2023/09/08 09:30:26;;;;;;;11.10;4.07;;;;;;;26.83;100.00;101069.00;5070412;28;20152;-70
2023/09/08 09:33:04;;;;;;;14.75;4.03;;;;;;;26.58;100.00;101074.13;5070436;28;20049;-69
2023/09/08 09:35:43;;;;;;;14.82;4.68;;;;;;;26.71;100.00;101071.91;5067913;28;20433;-69
2023/09/08 09:38:10;;;;;;;17.55;4.70;;;;;;;26.92;100.00;101060.00;5064598;28;20413;-69
2023/09/08 09:40:38;;;;;;;11.70;3.83;;;;;;;26.94;100.00;101055.31;5069834;28;20059;-69
2023/09/08 09:43:05;;;;;;;17.05;4.65;;;;;;;27.14;100.00;101066.69;5070508;28;20080;-69
2023/09/08 09:45:34;;;;;;;16.70;4.30;;;;;;;26.95;100.00;101069.56;5056733;28;20037;-69
2023/09/08 09:48:04;;;;;;;16.92;4.88;;;;;;;27.14;100.00;101058.63;5070531;28;20497;-70
2023/09/08 09:50:35;;;;;;;14.85;4.50;;;;;;;27.08;100.00;101070.84;5053399;28;21663;-69
2023/09/08 09:53:16;;;;;;;12.45;3.97;;;;;;;27.21;100.00;101065.06;5059373;28;20045;-69
2023/09/08 09:55:45;;;;;;;11.27;3.95;;;;;;;27.29;100.00;101067.00;5064852;28;20053;-69
2023/09/08 09:58:14;;;;;;;12.52;4.40;;;;;;;27.36;100.00;101065.34;5070620;28;20052;-69
2023/09/08 10:00:41;;;;;;;17.98;5.25;;;;;;;27.59;100.00;101052.19;5072861;28;20131;-69
2023/09/08 10:03:08;;;;;;;13.30;5.00;;;;;;;27.60;100.00;101071.84;5065482;28;20144;-69
2023/09/08 10:05:37;;;;;;;14.60;5.68;;;;;;;27.45;100.00;101074.31;5068780;28;20136;-69
2023/09/08 10:08:04;;;;;;;12.60;4.93;;;;;;;27.33;100.00;101059.44;5072745;28;20048;-69
2023/09/08 10:10:32;;;;;;;13.75;7.05;;;;;;;27.05;100.00;101064.94;5069110;28;20135;-69
2023/09/08 10:13:03;;;;;;;14.98;5.55;;;;;;;26.77;100.00;101066.94;5074323;28;20486;-69
2023/09/08 10:15:31;;;;;;;16.20;6.65;;;;;;;26.73;100.00;101031.47;5061227;28;20171;-69
2023/09/08 10:18:03;;;;;;;14.40;5.60;;;;;;;27.11;100.00;101055.41;5071644;28;20044;-69
2023/09/08 10:20:32;;;;;;;14.02;5.07;;;;;;;26.95;100.00;101050.78;5074219;28;20052;-69
2023/09/08 10:23:09;;;;;;;13.75;5.65;;;;;;;26.56;100.00;101065.41;5074241;28;20131;-69
2023/09/08 10:25:43;;;;;;;14.77;6.20;;;;;;;26.68;100.00;101066.88;5073610;28;20045;-69
2023/09/08 10:28:12;;;;;;;14.35;5.38;;;;;;;26.21;100.00;101050.97;5059050;28;20040;-69
2023/09/08 10:30:40;;;;;;;12.20;5.53;;;;;;;26.01;100.00;101063.69;5072873;28;20052;-69
2023/09/08 10:33:08;;;;;;;11.40;5.22;;;;;;;25.78;100.00;101063.19;5073878;28;20052;-69
2023/09/08 10:35:35;;;;;;;15.07;6.43;;;;;;;25.95;100.00;101061.56;5073316;28;20052;-69
2023/09/08 10:38:24;;;;;;;16.13;6.57;;;;;;;25.84;100.00;101069.81;5059381;28;20049;-70
2023/09/08 10:40:52;;;;;;;14.52;5.95;;;;;;;25.73;100.00;101066.31;5080324;28;20041;-69
2023/09/08 10:43:19;;;;;;;13.82;5.65;;;;;;;26.05;100.00;101077.63;5059700;28;20053;-69
2023/09/08 10:45:47;;;;;;;13.95;5.85;;;;;;;25.63;100.00;101073.56;5073757;28;20048;-69
2023/09/08 10:48:15;;;;;;;13.73;6.38;;;;;;;25.60;100.00;101063.13;5059773;28;20463;-69
2023/09/08 10:50:43;;;;;;;16.90;6.22;;;;;;;25.48;100.00;101072.34;5062858;28;20052;-69
2023/09/08 10:53:14;;;;;;;13.95;5.38;;;;;;;25.65;100.00;101060.00;5073301;28;20071;-69
2023/09/08 10:55:51;;;;;;;14.15;5.68;;;;;;;25.95;100.00;101080.34;5072929;28;20088;-68
2023/09/08 10:58:39;;;;;;;14.13;6.00;;;;;;;25.89;100.00;101081.78;5057757;28;20044;-69
2023/09/08 11:01:06;;;;;;;18.63;7.65;;;;;;;25.73;100.00;101073.53;5070685;28;20067;-69
2023/09/08 11:03:41;;;;;;;14.75;5.50;;;;;;;25.91;100.00;101084.31;5072791;28;20063;-69
2023/09/08 11:06:09;;;;;;;16.90;5.93;;;;;;;26.01;100.00;101081.59;5072302;28;20067;-69
2023/09/08 11:08:43;;;;;;;13.95;5.30;;;;;;;26.36;100.00;101080.78;5070049;28;20136;-69
2023/09/08 11:11:12;;;;;;;15.82;5.03;;;;;;;26.12;100.00;101079.56;5057081;28;20056;-68
2023/09/08 11:13:45;;;;;;;13.55;5.10;;;;;;;26.13;100.00;101081.25;5067371;28;20052;-69
2023/09/08 11:16:13;;;;;;;15.68;4.72;;;;;;;26.31;100.00;101083.94;5068471;28;20054;-69
2023/09/08 11:18:42;;;;;;;11.93;3.65;;;;;;;26.34;100.00;101072.88;5058013;28;20067;-69